Newport, AR

11:29 AM CDT on May 03, 2015 (GMT -0500)
Jonesboro Municipal | | Change Station
CLOSE
Current Station
Airport
Location: Jonesboro,
Elevation: 262 ft
Nearby Weather Stations

Elev 262 ft 35.83 °N, 90.65 °W | Updated 36 minutes ago

Clear
Clear
72 °F
Feels Like 72 °F
N
12
Wind Variable Wind from SW

Today
High -- | Low -- °F
--% Chance of Precip.
Yesterday
High -- | Low -- °F
Precip. -- in
6:11 AM 7:52 PM
Full, 100% visible
Pressure 30.09 in
Visibility 10.0 miles
Clouds Clear
Dew Point 50 °F
Humidity 46%
Rainfall 0.00 in
Snow Depth Not available.
UV 9 out of 12
Pollen 7.40 out of 12
Air Quality Not available.
Flu Activity No Activity
METAR KJBR 031553Z AUTO 22010KT 10SM CLR 22/10 A3010 RMK AO2 SLP189 T02220100

More Conditions Fewer Conditions

Pressure 30.09 in
Visibility 10.0 miles
Clouds Clear
Dew Point 50 °F
Humidity 46%
Rainfall 0.00 in
Snow Depth Not available.
UV 9 out of 12
Pollen 7.40 out of 12
Air Quality Not available.
Flu Activity No Activity
METAR KJBR 031553Z AUTO 22010KT 10SM CLR 22/10 A3010 RMK AO2 SLP189 T02220100

More Conditions Fewer Conditions

Nepal has a long way to go to dig out and rebuild from a devastating earthquake. We have teamed up with several charities and organizations to make contributing to the relief effort as easy as possible.
How you can help: Portlight Strategies | Red Cross

10-Day Weather Forecast

Almanac

Astronomy

May. 03, 2015 Rise Set
Actual Time
Civil Twilight
Nautical Twilight
Astronomical Twilight
Moon
Length of Visible Light
Length of Day
Tomorrow will be .
, % of the Moon is Illuminated

Today's Extremes

State Highs State Lows

Community

WunderPhotos

Upload Photos

1,818,264 photos uploaded!

WunderBlogs® & News

Nearby

Air Quality

  Air Quality AQ Index Pollutant
Not available.

Snow Depth

Station Depth Elevation

Earthquake Activity

City Distance Mag. Time & Date
Minimum magnitude displayed is 2.5.

Coastal Water Temperatures

Place Temperature

Stations

Nearby Weather Stations

Station Location Temp. Windchill Dew Point Humidity Wind Precip. Elev Updated Type